createdAt,value
2022-11-03T00:00:32.461Z,49.69
2022-11-03T00:05:53.859Z,49.88
2022-11-03T00:11:03.196Z,50.03
2022-11-03T00:16:06.479Z,50.29
2022-11-03T00:21:11.355Z,50.41
2022-11-03T00:26:14.817Z,50.55
2022-11-03T00:31:18.373Z,50.73
2022-11-03T00:36:22.923Z,50.83
2022-11-03T00:41:25.897Z,51.10
2022-11-03T00:46:30.236Z,51.53
2022-11-03T00:51:36.024Z,51.57
2022-11-03T00:56:39.563Z,52.01
2022-11-03T01:01:46.729Z,52.05
2022-11-03T01:06:53.375Z,52.24
2022-11-03T01:11:59.806Z,52.59
2022-11-03T01:17:02.692Z,52.68
2022-11-03T01:22:09.700Z,52.73
2022-11-03T01:27:15.170Z,52.89
2022-11-03T01:32:17.842Z,53.31
2022-11-03T01:37:21.847Z,53.54
2022-11-03T01:42:24.519Z,53.55
2022-11-03T01:47:28.011Z,53.86
2022-11-03T01:52:36.531Z,53.76
2022-11-03T01:57:40.819Z,54.29
2022-11-03T02:02:43.741Z,54.36
2022-11-03T02:07:50.959Z,54.53
2022-11-03T02:12:53.738Z,54.71
2022-11-03T02:17:56.404Z,54.88
2022-11-03T02:23:14.592Z,54.87
2022-11-03T02:28:19.352Z,54.64
2022-11-03T02:33:29.674Z,54.80
2022-11-03T02:38:32.914Z,54.88
2022-11-03T02:43:36.905Z,54.84
2022-11-03T02:48:39.546Z,55.09
2022-11-03T02:53:45.206Z,55.11
2022-11-03T02:58:52.817Z,55.26
2022-11-03T03:03:56.387Z,55.55
2022-11-03T03:09:04.885Z,55.45
2022-11-03T03:14:10.664Z,55.54
2022-11-03T03:19:19.443Z,55.85
2022-11-03T03:24:26.598Z,55.75
2022-11-03T03:29:34.699Z,55.82
2022-11-03T03:34:37.738Z,55.92
2022-11-03T03:39:40.892Z,56.19
2022-11-03T03:44:44.949Z,55.98
2022-11-03T03:49:47.649Z,56.20
2022-11-03T03:54:50.379Z,56.16
2022-11-03T03:59:54.549Z,56.27
2022-11-03T04:04:58.396Z,56.21
2022-11-03T04:10:01.133Z,56.45
2022-11-03T04:15:22.787Z,56.17
2022-11-03T04:20:43.095Z,56.43
2022-11-03T04:25:50.682Z,56.31
2022-11-03T04:30:58.762Z,56.18
2022-11-03T04:36:02.166Z,56.63
2022-11-03T04:41:08.438Z,56.54
2022-11-03T04:46:13.176Z,56.27
2022-11-03T04:51:17.217Z,56.43
2022-11-03T04:56:21.738Z,56.11
2022-11-03T05:01:26.111Z,56.13
2022-11-03T05:06:29.718Z,56.29
2022-11-03T05:11:33.447Z,56.16
2022-11-03T05:16:37.666Z,56.17
2022-11-03T05:21:40.372Z,56.02
2022-11-03T05:26:43.094Z,56.07
2022-11-03T05:31:48.303Z,56.29
2022-11-03T05:36:50.954Z,56.20
2022-11-03T05:41:53.591Z,56.05
2022-11-03T05:46:58.120Z,55.95
2022-11-03T05:52:00.768Z,56.12
2022-11-03T05:57:03.409Z,56.13
2022-11-03T06:02:12.373Z,56.12
2022-11-03T06:07:17.834Z,55.99
2022-11-03T06:12:21.261Z,56.23
2022-11-03T06:17:26.410Z,56.35
2022-11-03T06:22:30.473Z,56.34
2022-11-03T06:27:33.120Z,56.45
2022-11-03T06:32:37.124Z,56.17
2022-11-03T06:37:39.803Z,56.51
2022-11-03T06:42:42.737Z,56.25
2022-11-03T06:47:47.849Z,56.41
2022-11-03T06:52:50.535Z,56.38
2022-11-03T06:57:55.246Z,56.24
2022-11-03T07:03:02.460Z,56.05
2022-11-03T07:08:12.403Z,56.36
2022-11-03T07:13:16.609Z,56.08
2022-11-03T07:18:23.480Z,56.10
2022-11-03T07:23:27.246Z,56.16
2022-11-03T07:28:32.862Z,56.08
2022-11-03T07:33:36.880Z,55.89
2022-11-03T07:38:39.748Z,55.81
2022-11-03T07:43:42.902Z,55.99
2022-11-03T07:48:47.846Z,55.91
2022-11-03T07:53:51.449Z,56.02
2022-11-03T07:58:55.611Z,55.87
2022-11-03T08:04:01.703Z,55.96
2022-11-03T08:09:04.449Z,55.85
2022-11-03T08:14:07.289Z,55.71
2022-11-03T08:19:11.389Z,55.11
2022-11-03T08:24:14.186Z,54.02
2022-11-03T08:29:17.574Z,53.47
2022-11-03T08:34:21.616Z,52.73
2022-11-03T08:39:24.263Z,51.79
2022-11-03T08:44:27.251Z,51.61
2022-11-03T08:49:31.270Z,50.76
2022-11-03T08:54:36.760Z,49.68
2022-11-03T08:59:39.495Z,38.68
2022-11-03T09:04:46.007Z,39.66
2022-11-03T09:15:11.618Z,42.27
2022-11-03T09:20:15.646Z,43.56
2022-11-03T09:25:18.955Z,44.07
2022-11-03T09:30:22.051Z,44.41
2022-11-03T09:35:26.313Z,44.88
2022-11-03T09:40:29.008Z,44.93
2022-11-03T09:45:31.673Z,45.16
2022-11-03T09:50:35.730Z,45.42
2022-11-03T09:55:38.364Z,45.68
2022-11-03T10:00:41.132Z,45.82
2022-11-03T10:05:45.582Z,45.55
2022-11-03T10:10:48.518Z,46.04
2022-11-03T10:15:51.229Z,46.25
2022-11-03T10:20:55.245Z,46.09
2022-11-03T10:26:00.948Z,46.49
2022-11-03T10:31:11.961Z,46.09
2022-11-03T10:36:25.316Z,45.97
2022-11-03T10:41:28.622Z,46.15
2022-11-03T10:51:58.532Z,45.75
2022-11-03T10:57:01.204Z,45.75
2022-11-03T11:02:04.054Z,46.02
2022-11-03T11:07:19.313Z,46.31
2022-11-03T11:12:23.399Z,40.53
2022-11-03T11:17:50.972Z,39.73
2022-11-03T11:22:55.029Z,40.53
2022-11-03T11:28:00.649Z,40.07
2022-11-03T11:33:13.793Z,39.53
2022-11-03T11:39:05.364Z,39.37
2022-11-03T11:44:41.382Z,40.71
2022-11-03T11:49:45.384Z,41.93
2022-11-03T11:54:48.059Z,42.23
2022-11-03T11:59:51.073Z,42.02
2022-11-03T12:04:59.562Z,42.51
2022-11-03T12:10:08.690Z,42.32
2022-11-03T12:15:48.715Z,42.41
2022-11-03T12:20:52.800Z,41.91
2022-11-03T12:25:55.473Z,41.96
2022-11-03T12:30:58.149Z,42.23
2022-11-03T12:36:02.157Z,42.34
2022-11-03T12:41:18.810Z,42.28
2022-11-03T12:46:23.027Z,42.36
2022-11-03T12:51:27.038Z,42.03
2022-11-03T12:56:29.738Z,42.55
2022-11-03T13:01:33.294Z,42.44
2022-11-03T13:06:37.671Z,42.63
2022-11-03T13:11:58.053Z,42.73
2022-11-03T13:17:03.655Z,42.85
2022-11-03T13:22:07.762Z,43.10
2022-11-03T13:27:10.630Z,43.45
2022-11-03T13:32:13.448Z,42.99
2022-11-03T13:37:17.549Z,43.37
2022-11-03T13:42:20.263Z,43.59
2022-11-03T13:47:34.272Z,43.86
2022-11-03T13:52:47.588Z,43.77
2022-11-03T14:08:36.994Z,44.22
2022-11-03T14:13:39.775Z,44.30
2022-11-03T14:18:42.426Z,45.25
2022-11-03T14:23:55.422Z,45.33
2022-11-03T14:28:58.207Z,45.26
2022-11-03T14:34:00.864Z,45.88
2022-11-03T14:39:04.950Z,46.08
2022-11-03T14:44:07.755Z,46.48
2022-11-03T14:49:10.425Z,46.48
2022-11-03T14:54:14.562Z,46.74
2022-11-03T14:59:17.227Z,46.98
2022-11-03T15:04:19.979Z,46.98
2022-11-03T15:09:24.083Z,46.91
2022-11-03T15:14:26.858Z,46.76
2022-11-03T15:19:29.526Z,46.91
2022-11-03T15:29:56.527Z,47.12
2022-11-03T15:34:59.990Z,47.13
2022-11-03T15:40:04.370Z,47.18
2022-11-03T15:45:08.536Z,47.20
2022-11-03T15:50:11.623Z,47.32
2022-11-03T15:55:15.972Z,47.19
2022-11-03T16:00:19.682Z,47.55
2022-11-03T16:05:25.174Z,47.70
2022-11-03T16:10:29.550Z,47.65
2022-11-03T16:15:32.186Z,47.97
2022-11-03T16:20:34.997Z,47.97
2022-11-03T16:25:39.512Z,48.25
2022-11-03T16:30:42.458Z,47.99
2022-11-03T16:35:45.161Z,48.24
2022-11-03T16:40:49.235Z,48.48
2022-11-03T16:45:51.980Z,48.66
2022-11-03T16:50:56.766Z,49.38
2022-11-03T16:56:01.012Z,50.04
2022-11-03T17:01:04.590Z,51.17
2022-11-03T17:06:07.621Z,50.83
2022-11-03T17:11:11.627Z,50.38
2022-11-03T17:16:14.298Z,50.90
2022-11-03T17:21:16.992Z,50.62
2022-11-03T17:26:22.850Z,50.26
2022-11-03T17:31:26.041Z,49.82
2022-11-03T17:36:28.712Z,49.52
2022-11-03T17:41:33.084Z,49.14
2022-11-03T17:46:35.737Z,49.17
2022-11-03T17:51:40.400Z,48.94
2022-11-03T17:56:44.434Z,48.76
2022-11-03T18:01:48.039Z,48.86
2022-11-03T18:06:50.818Z,48.71
2022-11-03T18:12:12.302Z,48.94
2022-11-03T18:17:15.047Z,48.86
2022-11-03T18:22:17.766Z,49.08
2022-11-03T18:27:25.261Z,49.07
2022-11-03T18:32:33.108Z,49.01
2022-11-03T18:37:38.533Z,49.28
2022-11-03T18:42:42.658Z,49.47
2022-11-03T18:47:45.586Z,49.56
2022-11-03T18:52:49.262Z,49.57
2022-11-03T18:57:53.575Z,49.83
2022-11-03T19:02:56.555Z,49.78
2022-11-03T19:07:59.297Z,49.79
2022-11-03T19:13:03.352Z,50.20
2022-11-03T19:18:06.853Z,50.14
2022-11-03T19:23:10.495Z,50.21
2022-11-03T19:28:15.613Z,50.16
2022-11-03T19:33:21.003Z,50.21
2022-11-03T19:38:23.850Z,50.32
2022-11-03T19:43:33.330Z,49.91
2022-11-03T19:48:37.295Z,50.25
2022-11-03T20:04:49.140Z,50.31
2022-11-03T20:09:51.751Z,50.24
2022-11-03T20:14:54.772Z,50.39
2022-11-03T20:19:58.835Z,50.43
2022-11-03T20:25:03.030Z,50.38
2022-11-03T20:30:07.218Z,50.33
2022-11-03T20:35:14.609Z,50.36
2022-11-03T20:40:20.389Z,50.17
2022-11-03T20:45:23.742Z,49.74
2022-11-03T20:50:30.632Z,49.70
2022-11-03T20:55:33.315Z,49.74
2022-11-03T21:00:35.930Z,49.41
2022-11-03T21:05:39.995Z,49.27
2022-11-03T21:10:42.588Z,49.35
2022-11-03T21:16:23.467Z,49.44
2022-11-03T21:21:27.160Z,49.00
2022-11-03T21:26:29.836Z,49.15
2022-11-03T21:31:32.510Z,48.84
2022-11-03T21:36:37.052Z,48.79
2022-11-03T21:41:57.454Z,48.75
2022-11-03T21:47:00.134Z,48.79
2022-11-03T21:52:04.302Z,48.55
2022-11-03T21:57:07.425Z,48.60
2022-11-03T22:02:10.963Z,48.32
2022-11-03T22:07:14.990Z,48.28
2022-11-03T22:12:17.786Z,48.41
2022-11-03T22:17:20.537Z,48.60
2022-11-03T22:22:42.431Z,48.59
2022-11-03T22:27:45.208Z,48.46
2022-11-03T22:32:51.228Z,48.65
2022-11-03T22:38:05.787Z,48.44
2022-11-03T22:43:35.462Z,48.65
2022-11-03T22:48:38.358Z,48.88
2022-11-03T22:54:00.283Z,48.83
2022-11-03T22:59:02.885Z,48.83
2022-11-03T23:04:06.567Z,48.94
2022-11-03T23:09:11.801Z,48.95
2022-11-03T23:14:14.411Z,48.98
2022-11-03T23:19:34.676Z,49.10
2022-11-03T23:25:07.618Z,49.22
2022-11-03T23:30:10.974Z,49.07
2022-11-03T23:35:14.565Z,49.00
2022-11-03T23:40:20.523Z,49.11
2022-11-03T23:45:41.692Z,49.24
2022-11-03T23:50:44.507Z,49.38
2022-11-03T23:56:02.415Z,49.28
